Port Columbus International Airport
KCMH : now visible

Airfield :











YOU CAN JOIN US ON...

 
LOGIN :

Register | Disclaimer

   EN    FR    IT 

 









Legend :    VFR   Marginal VFR   IFR   Intensive IFR   Very Intensive IFR
Visi :
Ceiling :
>= 8 km
>= 3000ft
5 to 8 km
1000 to 3000 ft
1500m to 5 km
500 to 1000 ft
800 to 1500m
200 to 500 ft
< 800m
< 200 ft
Symbols :   Thunderstorms  Fog  Heavy snow  Heavy precipitations  Wind > 20 kt






- Airport Elevation : 815 ft
- IATA code : CMH


KCMH - Port Columbus International

CURRENT METAR :
  • 220551Z 00000KT 4SM R28L/1800V3500FT BCFG BR FEW003 14/14 A3018 RMK AO2 SLP217 60000 T01440144 10167 20144 56008

EXPIRED METARs :
  • 220532Z 00000KT 4SM R28L/2800VP6000FT BCFG BR FEW005 15/15 A3018 RMK AO2 T01500150
  • 220505Z 00000KT 4SM R28L/2600VP6000FT BR BKN005 14/14 A3018 RMK AO2 T01440144
  • 220451Z 00000KT 7SM FEW006 SCT065 SCT120 16/16 A3018 RMK AO2 SLP218 T01610156 402000133
  • 220351Z 00000KT 8SM OVC070 17/16 A3019 RMK AO2 RAE05 SLP221 P0000 T01670161

TAF KCMH
Valid from the 22 at 06:00 until the 23 at 06:00 UTC


220541Z 2206/2306 00000KT 1/4SM FG OVC004
FM221100 00000KT 1SM BR SCT006
FM221300 14003KT 4SM BR SCT040
FM221400 17005KT P6SM SCT040
FM221600 19006KT P6SM SCT050
FM222300 15005KT P6SM SKC
KZID FIR / North America



MET'MAP, your aeronautical weather chart ! - Copyright ORBIFLY December 2007 - Disclaimer

ORBIFLY MET'MAP TEAM :

Programming & Development : Alexandra Zaïnal
Concept & original design : Baudouin d'Aumeries
Assistance for programming : Marc-Olivier Méhu
Technical & hardware support : Manuel Goepfert

Contact : metmap@orbifly.com




SOURCES & CREDITS :

   NOAA       Earth
Advisory